• Join FlightAware (Why Join?)
  • Login
  • US Flag 
12:32PM EST


 

Airport Tracker/Info


-or-


 

Live Flight TrackerFlight Track Log ✈ VH-YSH ✈ 24-Aug-2013 ✈ YGLA / GLT - YBAF

Flight Track Log - Related Links

Times and Time Zones

All times are in EDT time to prevent confusion due to time zone crossing. See the VH-YSH flight status page for this flight to view local times or setup timezone preferences in your user account.

Time Position Orientation Groundspeed Altitude Reporting Facility
EDT Latitude Longitude Course Direction KTS MPH feet Rate Location/Type
02:27AM -23.8797 151.2527 121° Southeast 109 125 800  Level Aus ATC (RADAR)
02:28AM -23.8934 151.2778 121° Southeast 129 148 1,400 900 Climbing Aus ATC (RADAR)
02:29AM -23.9219 151.2917 156° South 129 148 2,400 840 Climbing Aus ATC (RADAR)
02:29AM -23.9311 151.2645 250° West 129 148 2,900 720 Climbing Aus ATC (RADAR)
02:30AM -23.9321 151.2417 267° West 127 146 3,400 780 Climbing Aus ATC (RADAR)
02:31AM -23.9584 151.2393 185° South 136 157 4,100 840 Climbing Aus ATC (RADAR)
02:32AM -23.9919 151.2467 169° South 121 139 5,100 900 Climbing Aus ATC (RADAR)
02:33AM -24.0175 151.2509 172° South 124 143 5,700 780 Climbing Aus ATC (RADAR)
02:34AM -24.0545 151.2533 177° South 125 144 6,600 780 Climbing Aus ATC (RADAR)
02:34AM -24.0741 151.2589 165° South 125 144 7,000 300 Climbing Aus ATC (RADAR)
02:35AM -24.0973 151.2653 166° South 146 168 7,000  Level Aus ATC (RADAR)
02:36AM -24.1486 151.2792 166° South 163 188 7,000  Level Aus ATC (RADAR)
02:37AM -24.1897 151.2924 164° South 169 194 7,100  Climbing Aus ATC (RADAR)
02:38AM -24.2252 151.3004 168° South 172 198 7,000 -180 Descending Aus ATC (RADAR)
02:38AM -24.2529 151.3074 167° South 175 201 6,900  Descending Aus ATC (RADAR)
02:39AM -24.2764 151.3135 167° South 173 199 7,000 60 Climbing Aus ATC (RADAR)
02:39AM -24.3035 151.3211 166° South 172 198 7,000  Level Aus ATC (RADAR)
02:40AM -24.3306 151.3285 166° South 171 197 7,000  Level Aus ATC (RADAR)
02:41AM -24.3694 151.3386 167° South 171 197 7,000  Level Aus ATC (RADAR)
02:42AM -24.4152 151.3514 166° South 171 197 7,000  Level Aus ATC (RADAR)
02:42AM -24.4498 151.3605 167° South 171 197 7,000  Level Aus ATC (RADAR)
02:43AM -24.4765 151.3672 167° South 168 193 7,000  Level Aus ATC (RADAR)
02:44AM -24.5028 151.3748 165° South 166 191 7,000 60 Level Aus ATC (RADAR)
02:44AM -24.5250 151.3811 166° South 165 190 7,100 60 Climbing Aus ATC (RADAR)
02:45AM -24.5469 151.3873 166° South 163 188 7,100 -120 Level Aus ATC (RADAR)
02:45AM -24.5729 151.3935 168° South 163 188 7,000 -180 Descending Aus ATC (RADAR)
02:46AM -24.6070 151.4022 167° South 168 193 6,900  Descending Aus ATC (RADAR)
02:47AM -24.6520 151.4150 166° South 165 190 7,000 60 Climbing Aus ATC (RADAR)
02:48AM -24.6816 151.4234 166° South 165 190 7,000  Level Aus ATC (RADAR)
02:48AM -24.7080 151.4300 167° South 166 191 7,000  Level Aus ATC (RADAR)
02:49AM -24.7336 151.4375 165° South 165 190 7,000  Level Aus ATC (RADAR)
02:49AM -24.7560 151.4434 167° South 165 190 7,000  Level Aus ATC (RADAR)
02:50AM -24.7823 151.4501 167° South 167 192 7,000  Level Aus ATC (RADAR)
02:50AM -24.8079 151.4574 165° South 163 188 7,000  Level Aus ATC (RADAR)
02:51AM -24.8448 151.4671 167° South 163 188 7,000  Level Aus ATC (RADAR)
02:52AM -24.8852 151.4784 166° South 164 189 7,000  Level Aus ATC (RADAR)
02:53AM -24.9150 151.4866 166° South 166 191 7,000  Level Aus ATC (RADAR)
02:53AM -24.9415 151.4933 167° South 167 192 7,000  Level Aus ATC (RADAR)
02:54AM -24.9679 151.5010 165° South 169 194 7,000  Level Aus ATC (RADAR)
02:54AM -24.9904 151.5071 166° South 167 192 7,000  Level Aus ATC (RADAR)
02:55AM -25.0170 151.5144 166° South 168 193 7,000  Level Aus ATC (RADAR)
02:56AM -25.0512 151.5241 166° South 168 193 7,000  Level Aus ATC (RADAR)
02:56AM -25.0742 151.5298 167° South 168 193 7,000  Level Aus ATC (RADAR)
02:57AM -25.1002 151.5368 166° South 165 190 7,000  Level Aus ATC (RADAR)
02:57AM -25.1263 151.5446 165° South 168 193 7,000  Level Aus ATC (RADAR)
02:58AM -25.1467 151.5567 152° Southeast 167 192 7,000  Level Aus ATC (RADAR)
02:59AM -25.1704 151.5713 151° Southeast 166 191 7,000  Level Aus ATC (RADAR)
02:59AM -25.1951 151.5845 154° Southeast 169 194 7,000  Level Aus ATC (RADAR)
03:00AM -25.2157 151.5965 152° Southeast 168 193 7,000  Level Aus ATC (RADAR)
03:00AM -25.2401 151.6100 153° Southeast 167 192 7,000  Level Aus ATC (RADAR)
03:01AM -25.2712 151.6282 152° Southeast 167 192 7,000  Level Aus ATC (RADAR)
03:02AM -25.2951 151.6415 153° Southeast 164 189 7,000  Level Aus ATC (RADAR)
03:02AM -25.3157 151.6533 153° Southeast 165 190 7,000  Level Aus ATC (RADAR)
03:03AM -25.3400 151.6670 153° Southeast 166 191 7,000  Level Aus ATC (RADAR)
03:03AM -25.3600 151.6798 150° Southeast 165 190 7,000  Level Aus ATC (RADAR)
03:04AM -25.3846 151.6930 154° Southeast 167 192 7,000  Level Aus ATC (RADAR)
03:04AM -25.4090 151.7063 154° Southeast 167 192 7,000  Level Aus ATC (RADAR)
03:05AM -25.4330 151.7195 154° Southeast 166 191 7,000  Level Aus ATC (RADAR)
03:05AM -25.4536 151.7316 152° Southeast 167 192 7,000  Level Aus ATC (RADAR)
03:06AM -25.4913 151.7530 153° Southeast 166 191 7,000  Level Aus ATC (RADAR)
03:07AM -25.5336 151.7755 154° Southeast 169 194 7,000  Level Aus ATC (RADAR)
03:10AM -25.6268 151.8280 153° Southeast 7,000  Level Aus ATC (Calculated)
03:11AM -25.6268 151.8280 153° Southeast 7,000  Level Aus ATC (Calculated)
03:13AM -25.7045 151.8743 149° Southeast  Level Estimated
03:13AM -25.7075 151.8737 153° Southeast 7,000  Level Aus ATC (Calculated)
03:14AM -25.7440 151.8968 153° Southeast  Level FlightAware Approximate
03:14AM -25.7832 151.9165 154° Southeast 7,000  Level Aus ATC (Calculated)
03:15AM -25.7563 151.9015 153° Southeast  Level FlightAware Approximate
03:16AM -25.8319 151.9444 153° Southeast  Level FlightAware Approximate
03:17AM -25.8715 151.9671 153° Southeast  Level FlightAware Approximate
03:18AM -25.9110 151.9897 153° Southeast  Level FlightAware Approximate
03:19AM -25.9506 152.0124 153° Southeast  Level FlightAware Approximate
03:19AM -26.0290 152.0527 153° Southeast 254 292 7,000  Level Aus ATC (RADAR)
03:20AM -26.0581 152.0742 146° Southeast 171 197 7,000  Level Aus ATC (RADAR)
03:21AM -26.0971 152.0965 153° Southeast 172 198 7,000  Level Aus ATC (RADAR)
03:21AM -26.1333 152.1170 153° Southeast 174 200 7,000  Level Aus ATC (RADAR)
03:22AM -26.1710 152.1412 150° Southeast 172 198 7,000  Level Aus ATC (RADAR)
03:23AM -26.2035 152.1588 154° Southeast 171 197 7,000  Level Aus ATC (RADAR)
03:24AM -26.2451 152.1835 152° Southeast 167 192 7,000  Level Aus ATC (RADAR)
03:25AM -26.2780 152.1999 156° South 171 197 7,000  Level Aus ATC (RADAR)
03:25AM -26.3026 152.2156 150° Southeast 172 198 7,000  Level Aus ATC (RADAR)
03:26AM -26.3420 152.2379 153° Southeast 172 198 7,000  Level Aus ATC (RADAR)
03:27AM -26.3780 152.2588 153° Southeast 174 200 7,000  Level Aus ATC (RADAR)
03:28AM -26.4031 152.2734 153° Southeast 175 201 7,000  Level Aus ATC (RADAR)
03:29AM -26.4354 152.2919 153° Southeast 173 199 7,000  Level Aus ATC (RADAR)
03:29AM -26.4601 152.3065 152° Southeast 171 197 7,000  Level Aus ATC (RADAR)
03:30AM -26.4851 152.3208 153° Southeast 172 198 7,000  Level Aus ATC (RADAR)
03:30AM -26.5098 152.3353 152° Southeast 171 197 7,000  Level Aus ATC (RADAR)
03:31AM -26.5348 152.3495 153° Southeast 171 197 7,000  Level Aus ATC (RADAR)
03:32AM -26.5704 152.3702 153° Southeast 172 198 7,000  Level Aus ATC (RADAR)
03:33AM -26.6140 152.3956 152° Southeast 176 203 7,000  Level Aus ATC (RADAR)
03:33AM -26.6429 152.4126 152° Southeast 176 203 7,000  Level Aus ATC (RADAR)
03:34AM -26.6868 152.4374 153° Southeast 176 203 7,000  Level Aus ATC (RADAR)
03:35AM -26.7155 152.4545 152° Southeast 174 200 7,000  Level Aus ATC (RADAR)
03:36AM -26.7402 152.4692 152° Southeast 172 198 7,000  Level Aus ATC (RADAR)
03:36AM -26.7616 152.4813 153° Southeast 170 196 7,000  Level Aus ATC (RADAR)
03:37AM -26.8046 152.5060 153° Southeast 172 198 7,000  Level Aus ATC (RADAR)
03:38AM -26.8445 152.5293 152° Southeast 175 201 7,000  Level Aus ATC (RADAR)
03:39AM -26.8733 152.5462 152° Southeast 174 200 7,000  Level Aus ATC (RADAR)
03:40AM -26.9172 152.5716 153° Southeast 176 203 7,000  Level Aus ATC (RADAR)
03:40AM -26.9498 152.5916 151° Southeast 177 204 7,000  Level Aus ATC (RADAR)
03:41AM -26.9876 152.6187 147° Southeast 175 201 7,000 -120 Level Aus ATC (RADAR)
03:42AM -27.0208 152.6406 150° Southeast 183 211 6,800 -420 Descending Aus ATC (RADAR)
03:43AM -27.0668 152.6715 149° Southeast 190 219 6,300 -540 Descending Aus ATC (RADAR)
03:44AM -27.0977 152.6918 150° Southeast 191 220 5,900 -600 Descending Aus ATC (RADAR)
03:45AM -27.1398 152.7201 149° Southeast 190 219 5,400 -600 Descending Aus ATC (RADAR)
03:45AM -27.1706 152.7406 149° Southeast 191 220 5,000 -600 Descending Aus ATC (RADAR)
03:46AM -27.2163 152.7735 147° Southeast 193 222 4,400 -600 Descending Aus ATC (RADAR)
03:47AM -27.2561 152.7967 153° Southeast 189 217 4,000 -240 Descending Aus ATC (RADAR)
03:48AM -27.2976 152.8286 146° Southeast 177 204 4,000  Level Aus ATC (RADAR)
03:49AM -27.3228 152.8530 139° Southeast 176 203 4,000 60 Level Aus ATC (RADAR)
03:50AM -27.3643 152.8553 177° South 165 190 4,100  Climbing Aus ATC (RADAR)
03:51AM -27.4012 152.8491 188° South 182 209 4,000  Descending Aus ATC (RADAR)
03:51AM -27.4457 152.8576 170° South 173 199 4,100  Climbing Aus ATC (RADAR)
03:52AM -27.4810 152.8673 166° South 179 206 4,000 -240 Descending Aus ATC (RADAR)
03:53AM -27.5177 152.9059 137° Southeast 180 207 3,700 -600 Descending Aus ATC (RADAR)
03:54AM -27.5365 152.9372 124° Southeast 173 199 3,000 -780 Descending Aus ATC (RADAR)
03:54AM -27.5483 152.9573 123° Southeast 153 176 2,800 -660 Descending Aus ATC (RADAR)
03:55AM -27.5638 152.9783 130° Southeast 148 170 2,300 -1,020 Descending Aus ATC (RADAR)
03:56AM -27.5831 153.0068 127° Southeast 149 171 1,500 -960 Descending Aus ATC (RADAR)
03:56AM -27.5768 153.0255 69° East 132 152 1,100 -660 Descending Aus ATC (RADAR)
03:57AM -27.5574 153.0259 North 120 138 800 -120 Descending Aus ATC (RADAR)
03:57AM -27.5469 153.0005 295° West 128 147 1,000 60 Climbing Aus ATC (RADAR)
03:58AM -27.5427 152.9765 281° West 133 153 900 -420 Descending Aus ATC (RADAR)
03:59AM -27.5601 152.9707 196° South 126 145 600 -720 Descending Aus ATC (RADAR)
03:59AM -27.5697 152.9919 117° Southeast 110 127 100 -780 Descending Aus ATC (RADAR)